sensor_id;sensor_type;location;lat;lon;timestamp;temperature;humidity
78550;DHT22;68091;52.130;5.570;2023-07-16T00:00:14;17.50;99.90
78550;DHT22;68091;52.130;5.570;2023-07-16T00:02:40;17.50;99.90
78550;DHT22;68091;52.130;5.570;2023-07-16T00:05:06;17.50;99.90
78550;DHT22;68091;52.130;5.570;2023-07-16T00:07:32;17.70;99.90
78550;DHT22;68091;52.130;5.570;2023-07-16T00:09:57;17.70;99.90
78550;DHT22;68091;52.130;5.570;2023-07-16T00:12:23;17.80;99.90
78550;DHT22;68091;52.130;5.570;2023-07-16T00:14:48;17.80;99.90
78550;DHT22;68091;52.130;5.570;2023-07-16T00:17:14;17.80;99.90
78550;DHT22;68091;52.130;5.570;2023-07-16T00:19:39;17.80;99.90
78550;DHT22;68091;52.130;5.570;2023-07-16T00:22:07;17.80;99.90
78550;DHT22;68091;52.130;5.570;2023-07-16T00:24:33;17.70;99.90
78550;DHT22;68091;52.130;5.570;2023-07-16T00:26:58;17.70;99.90
78550;DHT22;68091;52.130;5.570;2023-07-16T00:29:24;17.70;99.90
78550;DHT22;68091;52.130;5.570;2023-07-16T00:31:49;17.70;99.90
78550;DHT22;68091;52.130;5.570;2023-07-16T00:34:15;17.60;99.90
78550;DHT22;68091;52.130;5.570;2023-07-16T00:36:40;17.60;99.90
78550;DHT22;68091;52.130;5.570;2023-07-16T00:39:06;17.50;99.90
78550;DHT22;68091;52.130;5.570;2023-07-16T00:41:31;17.50;99.90
78550;DHT22;68091;52.130;5.570;2023-07-16T00:43:57;17.50;99.90
78550;DHT22;68091;52.130;5.570;2023-07-16T00:46:23;17.50;99.90
78550;DHT22;68091;52.130;5.570;2023-07-16T00:48:49;17.40;99.90
78550;DHT22;68091;52.130;5.570;2023-07-16T00:51:15;17.40;99.90
78550;DHT22;68091;52.130;5.570;2023-07-16T00:53:41;17.40;99.90
78550;DHT22;68091;52.130;5.570;2023-07-16T00:56:07;17.40;99.90
78550;DHT22;68091;52.130;5.570;2023-07-16T00:58:33;17.40;99.90
78550;DHT22;68091;52.130;5.570;2023-07-16T01:00:58;17.40;99.90
78550;DHT22;68091;52.130;5.570;2023-07-16T01:03:24;17.40;99.90
78550;DHT22;68091;52.130;5.570;2023-07-16T01:08:47;17.40;99.90
78550;DHT22;68091;52.130;5.570;2023-07-16T01:11:13;17.40;99.90
78550;DHT22;68091;52.130;5.570;2023-07-16T01:13:39;17.40;99.90
78550;DHT22;68091;52.130;5.570;2023-07-16T01:16:05;17.30;99.90
78550;DHT22;68091;52.130;5.570;2023-07-16T01:18:30;17.30;99.90
78550;DHT22;68091;52.130;5.570;2023-07-16T01:20:56;17.40;99.90
78550;DHT22;68091;52.130;5.570;2023-07-16T01:26:16;17.40;99.90
78550;DHT22;68091;52.130;5.570;2023-07-16T01:31:10;17.30;99.90
78550;DHT22;68091;52.130;5.570;2023-07-16T01:33:37;17.20;99.90
78550;DHT22;68091;52.130;5.570;2023-07-16T01:36:03;17.20;99.90
78550;DHT22;68091;52.130;5.570;2023-07-16T01:38:28;17.10;99.90
78550;DHT22;68091;52.130;5.570;2023-07-16T01:40:54;17.10;99.90
78550;DHT22;68091;52.130;5.570;2023-07-16T01:43:20;17.10;99.90
78550;DHT22;68091;52.130;5.570;2023-07-16T01:45:45;17.00;99.90
78550;DHT22;68091;52.130;5.570;2023-07-16T01:50:46;17.00;99.90
78550;DHT22;68091;52.130;5.570;2023-07-16T01:53:11;16.90;99.90
78550;DHT22;68091;52.130;5.570;2023-07-16T01:55:37;16.90;99.90
78550;DHT22;68091;52.130;5.570;2023-07-16T01:58:05;16.90;99.90
78550;DHT22;68091;52.130;5.570;2023-07-16T02:00:31;16.90;99.90
78550;DHT22;68091;52.130;5.570;2023-07-16T02:02:57;16.90;99.90
78550;DHT22;68091;52.130;5.570;2023-07-16T02:05:22;16.80;99.90
78550;DHT22;68091;52.130;5.570;2023-07-16T02:07:55;16.90;99.90
78550;DHT22;68091;52.130;5.570;2023-07-16T02:10:21;16.80;99.90
78550;DHT22;68091;52.130;5.570;2023-07-16T02:12:46;16.80;99.90
78550;DHT22;68091;52.130;5.570;2023-07-16T02:15:12;16.90;99.90
78550;DHT22;68091;52.130;5.570;2023-07-16T02:17:37;16.80;99.90
78550;DHT22;68091;52.130;5.570;2023-07-16T02:20:03;16.80;99.90
78550;DHT22;68091;52.130;5.570;2023-07-16T02:22:31;16.80;99.90
78550;DHT22;68091;52.130;5.570;2023-07-16T02:24:57;16.80;99.90
78550;DHT22;68091;52.130;5.570;2023-07-16T02:27:29;16.80;99.90
78550;DHT22;68091;52.130;5.570;2023-07-16T02:29:54;16.90;99.90
78550;DHT22;68091;52.130;5.570;2023-07-16T02:32:20;16.80;99.90
78550;DHT22;68091;52.130;5.570;2023-07-16T02:34:45;16.70;99.90
78550;DHT22;68091;52.130;5.570;2023-07-16T02:37:11;16.80;99.90
78550;DHT22;68091;52.130;5.570;2023-07-16T02:39:38;16.70;99.90
78550;DHT22;68091;52.130;5.570;2023-07-16T02:42:03;16.70;99.90
78550;DHT22;68091;52.130;5.570;2023-07-16T02:44:29;16.60;99.90
78550;DHT22;68091;52.130;5.570;2023-07-16T02:46:54;16.70;99.90
78550;DHT22;68091;52.130;5.570;2023-07-16T02:49:20;16.70;99.90
78550;DHT22;68091;52.130;5.570;2023-07-16T02:51:48;16.70;99.90
78550;DHT22;68091;52.130;5.570;2023-07-16T02:54:14;16.70;99.90
78550;DHT22;68091;52.130;5.570;2023-07-16T02:56:39;16.70;99.90
78550;DHT22;68091;52.130;5.570;2023-07-16T02:59:05;16.80;99.90
78550;DHT22;68091;52.130;5.570;2023-07-16T03:01:31;16.80;99.90
78550;DHT22;68091;52.130;5.570;2023-07-16T03:03:56;16.80;99.90
78550;DHT22;68091;52.130;5.570;2023-07-16T03:06:22;16.80;99.90
78550;DHT22;68091;52.130;5.570;2023-07-16T03:08:48;16.80;99.90
78550;DHT22;68091;52.130;5.570;2023-07-16T03:11:13;16.70;99.90
78550;DHT22;68091;52.130;5.570;2023-07-16T03:13:39;16.70;99.90
78550;DHT22;68091;52.130;5.570;2023-07-16T03:16:04;16.70;99.90
78550;DHT22;68091;52.130;5.570;2023-07-16T03:18:33;16.70;99.90
78550;DHT22;68091;52.130;5.570;2023-07-16T03:20:58;16.60;99.90
78550;DHT22;68091;52.130;5.570;2023-07-16T03:23:24;16.60;99.90
78550;DHT22;68091;52.130;5.570;2023-07-16T03:25:50;16.50;99.90
78550;DHT22;68091;52.130;5.570;2023-07-16T03:28:16;16.50;99.90
78550;DHT22;68091;52.130;5.570;2023-07-16T03:30:46;16.60;99.90
78550;DHT22;68091;52.130;5.570;2023-07-16T03:33:11;16.60;99.90
78550;DHT22;68091;52.130;5.570;2023-07-16T03:35:37;16.50;99.90
78550;DHT22;68091;52.130;5.570;2023-07-16T03:38:02;16.30;99.90
78550;DHT22;68091;52.130;5.570;2023-07-16T03:40:31;16.60;99.90
78550;DHT22;68091;52.130;5.570;2023-07-16T03:42:57;16.50;99.90
78550;DHT22;68091;52.130;5.570;2023-07-16T03:45:23;16.50;99.90
78550;DHT22;68091;52.130;5.570;2023-07-16T03:47:49;16.50;99.90
78550;DHT22;68091;52.130;5.570;2023-07-16T03:50:14;16.50;99.90
78550;DHT22;68091;52.130;5.570;2023-07-16T03:52:40;16.40;99.90
78550;DHT22;68091;52.130;5.570;2023-07-16T03:55:05;16.40;99.90
78550;DHT22;68091;52.130;5.570;2023-07-16T03:57:32;16.40;99.90
78550;DHT22;68091;52.130;5.570;2023-07-16T03:59:57;16.40;99.90
78550;DHT22;68091;52.130;5.570;2023-07-16T04:02:23;16.50;99.90
78550;DHT22;68091;52.130;5.570;2023-07-16T04:04:49;16.50;99.90
78550;DHT22;68091;52.130;5.570;2023-07-16T04:07:15;16.50;99.90
78550;DHT22;68091;52.130;5.570;2023-07-16T04:09:41;16.50;99.90
78550;DHT22;68091;52.130;5.570;2023-07-16T04:12:06;16.40;99.90
78550;DHT22;68091;52.130;5.570;2023-07-16T04:14:32;16.40;99.90
78550;DHT22;68091;52.130;5.570;2023-07-16T04:16:58;16.40;99.90
78550;DHT22;68091;52.130;5.570;2023-07-16T04:19:23;16.40;99.90
78550;DHT22;68091;52.130;5.570;2023-07-16T04:21:49;16.40;99.90
78550;DHT22;68091;52.130;5.570;2023-07-16T04:24:15;16.40;99.90
78550;DHT22;68091;52.130;5.570;2023-07-16T04:26:40;16.40;99.90
78550;DHT22;68091;52.130;5.570;2023-07-16T04:29:06;16.40;99.90
78550;DHT22;68091;52.130;5.570;2023-07-16T04:31:31;16.50;99.90
78550;DHT22;68091;52.130;5.570;2023-07-16T04:33:57;16.50;99.90
78550;DHT22;68091;52.130;5.570;2023-07-16T04:36:23;16.50;99.90
78550;DHT22;68091;52.130;5.570;2023-07-16T04:38:48;16.60;99.90
78550;DHT22;68091;52.130;5.570;2023-07-16T04:41:14;16.60;99.90
78550;DHT22;68091;52.130;5.570;2023-07-16T04:43:39;16.60;99.90
78550;DHT22;68091;52.130;5.570;2023-07-16T04:46:05;16.50;99.90
78550;DHT22;68091;52.130;5.570;2023-07-16T04:48:30;16.60;99.90
78550;DHT22;68091;52.130;5.570;2023-07-16T04:50:56;16.50;99.90
78550;DHT22;68091;52.130;5.570;2023-07-16T04:53:22;16.50;99.90
78550;DHT22;68091;52.130;5.570;2023-07-16T04:55:47;16.60;99.90
78550;DHT22;68091;52.130;5.570;2023-07-16T04:58:13;16.60;99.90
78550;DHT22;68091;52.130;5.570;2023-07-16T05:00:39;16.60;99.90
78550;DHT22;68091;52.130;5.570;2023-07-16T05:03:05;16.60;99.90
78550;DHT22;68091;52.130;5.570;2023-07-16T05:05:30;16.60;99.90
78550;DHT22;68091;52.130;5.570;2023-07-16T05:07:56;16.70;99.90
78550;DHT22;68091;52.130;5.570;2023-07-16T05:10:21;16.70;99.90
78550;DHT22;68091;52.130;5.570;2023-07-16T05:12:47;16.90;99.90
78550;DHT22;68091;52.130;5.570;2023-07-16T05:15:12;17.30;99.90
78550;DHT22;68091;52.130;5.570;2023-07-16T05:17:38;17.60;99.90
78550;DHT22;68091;52.130;5.570;2023-07-16T05:20:04;18.00;99.90
78550;DHT22;68091;52.130;5.570;2023-07-16T05:22:30;18.30;99.90
78550;DHT22;68091;52.130;5.570;2023-07-16T05:24:55;18.40;99.90
78550;DHT22;68091;52.130;5.570;2023-07-16T05:27:21;18.60;99.90
78550;DHT22;68091;52.130;5.570;2023-07-16T05:29:47;18.60;99.90
78550;DHT22;68091;52.130;5.570;2023-07-16T05:32:13;18.60;99.90
78550;DHT22;68091;52.130;5.570;2023-07-16T05:34:39;18.40;99.90
78550;DHT22;68091;52.130;5.570;2023-07-16T05:37:05;18.30;99.90
78550;DHT22;68091;52.130;5.570;2023-07-16T05:39:31;18.20;99.90
78550;DHT22;68091;52.130;5.570;2023-07-16T05:41:56;18.00;99.90
78550;DHT22;68091;52.130;5.570;2023-07-16T05:44:22;18.00;99.90
78550;DHT22;68091;52.130;5.570;2023-07-16T05:46:47;18.00;99.90
78550;DHT22;68091;52.130;5.570;2023-07-16T05:49:13;17.90;99.90
78550;DHT22;68091;52.130;5.570;2023-07-16T05:51:38;17.90;99.90
78550;DHT22;68091;52.130;5.570;2023-07-16T05:54:06;17.90;99.90
78550;DHT22;68091;52.130;5.570;2023-07-16T05:56:32;18.00;99.90
78550;DHT22;68091;52.130;5.570;2023-07-16T05:58:57;18.00;99.90
78550;DHT22;68091;52.130;5.570;2023-07-16T06:01:23;18.00;99.90
78550;DHT22;68091;52.130;5.570;2023-07-16T06:03:49;18.10;99.90
78550;DHT22;68091;52.130;5.570;2023-07-16T06:06:14;18.20;99.90
78550;DHT22;68091;52.130;5.570;2023-07-16T06:08:40;18.20;99.90
78550;DHT22;68091;52.130;5.570;2023-07-16T06:11:05;18.20;99.90
78550;DHT22;68091;52.130;5.570;2023-07-16T06:13:31;18.30;99.90
78550;DHT22;68091;52.130;5.570;2023-07-16T06:15:56;18.30;99.90
78550;DHT22;68091;52.130;5.570;2023-07-16T06:18:22;18.30;99.90
78550;DHT22;68091;52.130;5.570;2023-07-16T06:20:48;18.40;99.90
78550;DHT22;68091;52.130;5.570;2023-07-16T06:23:14;18.50;99.90
78550;DHT22;68091;52.130;5.570;2023-07-16T06:25:42;18.50;99.90
78550;DHT22;68091;52.130;5.570;2023-07-16T06:28:09;18.60;99.90
78550;DHT22;68091;52.130;5.570;2023-07-16T06:30:35;18.70;99.90
78550;DHT22;68091;52.130;5.570;2023-07-16T06:33:01;18.80;99.90
78550;DHT22;68091;52.130;5.570;2023-07-16T06:35:26;18.90;99.90
78550;DHT22;68091;52.130;5.570;2023-07-16T06:37:52;18.80;99.90
78550;DHT22;68091;52.130;5.570;2023-07-16T06:40:18;18.90;99.90
78550;DHT22;68091;52.130;5.570;2023-07-16T06:42:43;19.00;99.90
78550;DHT22;68091;52.130;5.570;2023-07-16T06:45:09;19.20;99.90
78550;DHT22;68091;52.130;5.570;2023-07-16T06:47:35;19.20;99.90
78550;DHT22;68091;52.130;5.570;2023-07-16T06:50:01;19.10;99.90
78550;DHT22;68091;52.130;5.570;2023-07-16T06:52:26;19.30;99.90
78550;DHT22;68091;52.130;5.570;2023-07-16T06:54:56;19.40;99.90
78550;DHT22;68091;52.130;5.570;2023-07-16T06:57:22;19.50;99.90
78550;DHT22;68091;52.130;5.570;2023-07-16T06:59:47;19.50;99.90
78550;DHT22;68091;52.130;5.570;2023-07-16T07:02:13;19.60;99.90
78550;DHT22;68091;52.130;5.570;2023-07-16T07:04:38;19.70;99.90
78550;DHT22;68091;52.130;5.570;2023-07-16T07:07:04;19.90;99.90
78550;DHT22;68091;52.130;5.570;2023-07-16T07:09:30;19.80;99.90
78550;DHT22;68091;52.130;5.570;2023-07-16T07:11:55;20.00;99.90
78550;DHT22;68091;52.130;5.570;2023-07-16T07:14:21;19.90;99.90
78550;DHT22;68091;52.130;5.570;2023-07-16T07:16:47;19.90;99.90
78550;DHT22;68091;52.130;5.570;2023-07-16T07:19:12;19.90;99.90
78550;DHT22;68091;52.130;5.570;2023-07-16T07:21:38;20.00;99.90
78550;DHT22;68091;52.130;5.570;2023-07-16T07:24:03;20.20;99.90
78550;DHT22;68091;52.130;5.570;2023-07-16T07:26:29;20.40;99.90
78550;DHT22;68091;52.130;5.570;2023-07-16T07:28:54;20.30;99.90
78550;DHT22;68091;52.130;5.570;2023-07-16T07:31:20;20.30;99.90
78550;DHT22;68091;52.130;5.570;2023-07-16T07:33:45;20.60;99.90
78550;DHT22;68091;52.130;5.570;2023-07-16T07:36:11;20.60;99.90
78550;DHT22;68091;52.130;5.570;2023-07-16T07:38:37;20.50;99.90
78550;DHT22;68091;52.130;5.570;2023-07-16T07:41:06;20.50;99.90
78550;DHT22;68091;52.130;5.570;2023-07-16T07:43:31;20.40;99.90
78550;DHT22;68091;52.130;5.570;2023-07-16T07:45:57;20.30;99.90
78550;DHT22;68091;52.130;5.570;2023-07-16T07:48:23;20.20;99.90
78550;DHT22;68091;52.130;5.570;2023-07-16T07:50:51;20.00;99.90
78550;DHT22;68091;52.130;5.570;2023-07-16T07:53:16;19.90;99.90
78550;DHT22;68091;52.130;5.570;2023-07-16T07:55:44;20.00;99.90
78550;DHT22;68091;52.130;5.570;2023-07-16T07:58:10;20.10;99.90
78550;DHT22;68091;52.130;5.570;2023-07-16T08:00:35;20.00;99.90
78550;DHT22;68091;52.130;5.570;2023-07-16T08:03:01;20.00;99.90
78550;DHT22;68091;52.130;5.570;2023-07-16T08:05:27;20.00;99.90
78550;DHT22;68091;52.130;5.570;2023-07-16T08:07:52;20.00;99.90
78550;DHT22;68091;52.130;5.570;2023-07-16T08:10:18;19.90;99.90
78550;DHT22;68091;52.130;5.570;2023-07-16T08:12:50;19.80;99.90
78550;DHT22;68091;52.130;5.570;2023-07-16T08:15:15;19.80;99.90
78550;DHT22;68091;52.130;5.570;2023-07-16T08:17:41;19.90;99.90
78550;DHT22;68091;52.130;5.570;2023-07-16T08:20:13;19.90;99.90
78550;DHT22;68091;52.130;5.570;2023-07-16T08:22:39;20.10;99.90
78550;DHT22;68091;52.130;5.570;2023-07-16T08:25:05;20.10;99.90
78550;DHT22;68091;52.130;5.570;2023-07-16T08:27:31;20.10;99.90
78550;DHT22;68091;52.130;5.570;2023-07-16T08:29:57;19.90;99.90
78550;DHT22;68091;52.130;5.570;2023-07-16T08:32:22;19.80;99.90
78550;DHT22;68091;52.130;5.570;2023-07-16T08:34:48;19.70;99.90
78550;DHT22;68091;52.130;5.570;2023-07-16T08:37:14;19.70;99.90
78550;DHT22;68091;52.130;5.570;2023-07-16T08:39:39;19.70;99.90
78550;DHT22;68091;52.130;5.570;2023-07-16T08:42:05;19.80;99.90
78550;DHT22;68091;52.130;5.570;2023-07-16T08:44:31;20.00;99.90
78550;DHT22;68091;52.130;5.570;2023-07-16T08:46:57;19.90;99.90
78550;DHT22;68091;52.130;5.570;2023-07-16T08:49:22;19.80;99.90
78550;DHT22;68091;52.130;5.570;2023-07-16T08:51:49;19.70;99.90
78550;DHT22;68091;52.130;5.570;2023-07-16T08:54:14;19.60;99.90
78550;DHT22;68091;52.130;5.570;2023-07-16T08:56:44;19.60;99.90
78550;DHT22;68091;52.130;5.570;2023-07-16T08:59:10;19.50;99.90
78550;DHT22;68091;52.130;5.570;2023-07-16T09:01:36;19.20;99.90
78550;DHT22;68091;52.130;5.570;2023-07-16T09:04:05;19.20;99.90
78550;DHT22;68091;52.130;5.570;2023-07-16T09:06:31;19.30;99.90
78550;DHT22;68091;52.130;5.570;2023-07-16T09:08:56;19.30;99.90
78550;DHT22;68091;52.130;5.570;2023-07-16T09:11:22;19.50;99.90
78550;DHT22;68091;52.130;5.570;2023-07-16T09:13:48;19.50;99.90
78550;DHT22;68091;52.130;5.570;2023-07-16T09:16:14;19.60;99.90
78550;DHT22;68091;52.130;5.570;2023-07-16T09:18:41;19.60;99.90
78550;DHT22;68091;52.130;5.570;2023-07-16T09:21:07;20.00;99.90
78550;DHT22;68091;52.130;5.570;2023-07-16T09:23:33;20.40;99.90
78550;DHT22;68091;52.130;5.570;2023-07-16T09:25:59;20.70;99.90
78550;DHT22;68091;52.130;5.570;2023-07-16T09:28:24;20.70;99.90
78550;DHT22;68091;52.130;5.570;2023-07-16T09:30:50;20.60;99.90
78550;DHT22;68091;52.130;5.570;2023-07-16T09:33:20;20.20;99.90
78550;DHT22;68091;52.130;5.570;2023-07-16T09:35:47;20.00;99.90
78550;DHT22;68091;52.130;5.570;2023-07-16T09:38:16;20.00;99.90
78550;DHT22;68091;52.130;5.570;2023-07-16T09:40:42;20.00;99.90
78550;DHT22;68091;52.130;5.570;2023-07-16T09:43:08;20.00;99.90
78550;DHT22;68091;52.130;5.570;2023-07-16T09:45:34;20.10;99.90
78550;DHT22;68091;52.130;5.570;2023-07-16T09:48:00;20.40;99.90
78550;DHT22;68091;52.130;5.570;2023-07-16T09:50:30;20.80;99.90
78550;DHT22;68091;52.130;5.570;2023-07-16T09:52:57;21.00;99.90
78550;DHT22;68091;52.130;5.570;2023-07-16T09:55:23;21.20;99.90
78550;DHT22;68091;52.130;5.570;2023-07-16T09:57:49;20.90;99.90
78550;DHT22;68091;52.130;5.570;2023-07-16T10:00:15;21.00;99.90
78550;DHT22;68091;52.130;5.570;2023-07-16T10:02:42;21.00;99.90
78550;DHT22;68091;52.130;5.570;2023-07-16T10:05:14;20.90;99.90
78550;DHT22;68091;52.130;5.570;2023-07-16T10:07:40;20.90;99.90
78550;DHT22;68091;52.130;5.570;2023-07-16T10:10:10;21.10;99.90
78550;DHT22;68091;52.130;5.570;2023-07-16T10:12:36;21.10;99.90
78550;DHT22;68091;52.130;5.570;2023-07-16T10:15:02;21.00;99.90
78550;DHT22;68091;52.130;5.570;2023-07-16T10:17:29;20.70;99.90
78550;DHT22;68091;52.130;5.570;2023-07-16T10:19:59;20.60;99.90
78550;DHT22;68091;52.130;5.570;2023-07-16T10:25:01;20.70;99.90
78550;DHT22;68091;52.130;5.570;2023-07-16T10:27:33;20.90;99.90
78550;DHT22;68091;52.130;5.570;2023-07-16T10:30:02;21.10;99.90
78550;DHT22;68091;52.130;5.570;2023-07-16T10:32:29;21.30;99.90
78550;DHT22;68091;52.130;5.570;2023-07-16T10:34:55;21.40;99.90
78550;DHT22;68091;52.130;5.570;2023-07-16T10:37:21;21.40;99.90
78550;DHT22;68091;52.130;5.570;2023-07-16T10:39:50;21.50;99.90
78550;DHT22;68091;52.130;5.570;2023-07-16T10:42:16;21.30;99.90
78550;DHT22;68091;52.130;5.570;2023-07-16T10:44:43;21.00;99.90
78550;DHT22;68091;52.130;5.570;2023-07-16T10:47:09;20.80;99.90
78550;DHT22;68091;52.130;5.570;2023-07-16T10:49:35;20.60;99.90
78550;DHT22;68091;52.130;5.570;2023-07-16T10:52:01;20.40;99.90
78550;DHT22;68091;52.130;5.570;2023-07-16T10:54:27;20.30;99.90
78550;DHT22;68091;52.130;5.570;2023-07-16T10:56:52;20.40;99.90
78550;DHT22;68091;52.130;5.570;2023-07-16T10:59:18;20.80;99.90
78550;DHT22;68091;52.130;5.570;2023-07-16T11:01:46;20.90;99.90
78550;DHT22;68091;52.130;5.570;2023-07-16T11:04:12;21.10;99.90
78550;DHT22;68091;52.130;5.570;2023-07-16T11:06:37;21.10;99.90
78550;DHT22;68091;52.130;5.570;2023-07-16T11:09:09;21.20;99.90
78550;DHT22;68091;52.130;5.570;2023-07-16T11:11:35;21.10;99.90
78550;DHT22;68091;52.130;5.570;2023-07-16T11:14:07;21.10;99.90
78550;DHT22;68091;52.130;5.570;2023-07-16T11:16:33;21.00;99.90
78550;DHT22;68091;52.130;5.570;2023-07-16T11:19:00;20.80;99.90
78550;DHT22;68091;52.130;5.570;2023-07-16T11:21:26;20.70;99.90
78550;DHT22;68091;52.130;5.570;2023-07-16T11:23:52;20.80;99.90
78550;DHT22;68091;52.130;5.570;2023-07-16T11:26:17;20.90;99.90
78550;DHT22;68091;52.130;5.570;2023-07-16T11:28:43;21.50;99.90
78550;DHT22;68091;52.130;5.570;2023-07-16T11:31:15;21.90;99.90
78550;DHT22;68091;52.130;5.570;2023-07-16T11:33:42;22.10;99.90
78550;DHT22;68091;52.130;5.570;2023-07-16T11:36:07;22.30;99.90
78550;DHT22;68091;52.130;5.570;2023-07-16T11:38:36;22.00;99.90
78550;DHT22;68091;52.130;5.570;2023-07-16T11:41:02;21.50;99.90
78550;DHT22;68091;52.130;5.570;2023-07-16T11:43:28;21.00;99.90
78550;DHT22;68091;52.130;5.570;2023-07-16T11:45:54;20.60;99.90
78550;DHT22;68091;52.130;5.570;2023-07-16T11:48:19;20.40;99.90
78550;DHT22;68091;52.130;5.570;2023-07-16T11:50:47;20.20;99.90
78550;DHT22;68091;52.130;5.570;2023-07-16T11:53:12;20.30;99.90
78550;DHT22;68091;52.130;5.570;2023-07-16T11:55:38;20.50;99.90
78550;DHT22;68091;52.130;5.570;2023-07-16T11:58:03;20.70;99.90
78550;DHT22;68091;52.130;5.570;2023-07-16T12:00:32;20.70;99.90
78550;DHT22;68091;52.130;5.570;2023-07-16T12:03:00;20.80;99.90
78550;DHT22;68091;52.130;5.570;2023-07-16T12:05:26;20.90;99.90
78550;DHT22;68091;52.130;5.570;2023-07-16T12:07:53;20.90;99.90
78550;DHT22;68091;52.130;5.570;2023-07-16T12:10:18;21.30;99.90
78550;DHT22;68091;52.130;5.570;2023-07-16T12:12:44;21.50;99.90
78550;DHT22;68091;52.130;5.570;2023-07-16T12:15:09;21.50;99.90
78550;DHT22;68091;52.130;5.570;2023-07-16T12:17:35;21.60;99.90
78550;DHT22;68091;52.130;5.570;2023-07-16T12:20:04;21.70;99.90
78550;DHT22;68091;52.130;5.570;2023-07-16T12:22:30;21.70;99.90
78550;DHT22;68091;52.130;5.570;2023-07-16T12:24:55;21.80;99.90
78550;DHT22;68091;52.130;5.570;2023-07-16T12:27:21;21.90;99.90
78550;DHT22;68091;52.130;5.570;2023-07-16T12:29:47;21.80;99.90
78550;DHT22;68091;52.130;5.570;2023-07-16T12:32:13;21.80;99.90
78550;DHT22;68091;52.130;5.570;2023-07-16T12:34:38;21.70;99.90
78550;DHT22;68091;52.130;5.570;2023-07-16T12:37:04;22.00;99.90
78550;DHT22;68091;52.130;5.570;2023-07-16T12:39:30;21.90;99.90
78550;DHT22;68091;52.130;5.570;2023-07-16T12:41:55;21.70;99.90
78550;DHT22;68091;52.130;5.570;2023-07-16T12:44:21;21.90;99.90
78550;DHT22;68091;52.130;5.570;2023-07-16T12:46:46;21.90;99.90
78550;DHT22;68091;52.130;5.570;2023-07-16T12:49:12;21.80;99.90
78550;DHT22;68091;52.130;5.570;2023-07-16T12:51:40;21.60;99.90
78550;DHT22;68091;52.130;5.570;2023-07-16T12:54:06;21.90;99.90
78550;DHT22;68091;52.130;5.570;2023-07-16T12:56:32;22.20;99.90
78550;DHT22;68091;52.130;5.570;2023-07-16T12:59:00;22.30;99.90
78550;DHT22;68091;52.130;5.570;2023-07-16T13:01:26;22.10;99.90
78550;DHT22;68091;52.130;5.570;2023-07-16T13:03:51;22.20;99.90
78550;DHT22;68091;52.130;5.570;2023-07-16T13:06:17;22.40;99.90
78550;DHT22;68091;52.130;5.570;2023-07-16T13:08:42;22.50;99.90
78550;DHT22;68091;52.130;5.570;2023-07-16T13:11:08;22.40;99.90
78550;DHT22;68091;52.130;5.570;2023-07-16T13:13:33;22.70;99.90
78550;DHT22;68091;52.130;5.570;2023-07-16T13:16:00;23.00;99.90
78550;DHT22;68091;52.130;5.570;2023-07-16T13:18:26;23.20;99.90
78550;DHT22;68091;52.130;5.570;2023-07-16T13:20:51;23.30;99.90
78550;DHT22;68091;52.130;5.570;2023-07-16T13:23:17;23.10;99.90
78550;DHT22;68091;52.130;5.570;2023-07-16T13:25:43;22.90;99.90
78550;DHT22;68091;52.130;5.570;2023-07-16T13:28:08;22.90;99.90
78550;DHT22;68091;52.130;5.570;2023-07-16T13:30:34;22.70;99.90
78550;DHT22;68091;52.130;5.570;2023-07-16T13:32:59;22.60;99.90
78550;DHT22;68091;52.130;5.570;2023-07-16T13:35:26;22.60;99.90
78550;DHT22;68091;52.130;5.570;2023-07-16T13:37:52;22.40;99.90
78550;DHT22;68091;52.130;5.570;2023-07-16T13:40:17;22.50;99.90
78550;DHT22;68091;52.130;5.570;2023-07-16T13:42:45;22.40;99.90
78550;DHT22;68091;52.130;5.570;2023-07-16T13:45:12;22.50;99.90
78550;DHT22;68091;52.130;5.570;2023-07-16T13:47:37;23.00;99.90
78550;DHT22;68091;52.130;5.570;2023-07-16T13:50:03;23.30;99.90
78550;DHT22;68091;52.130;5.570;2023-07-16T13:52:29;23.10;99.90
78550;DHT22;68091;52.130;5.570;2023-07-16T13:54:54;23.00;99.90
78550;DHT22;68091;52.130;5.570;2023-07-16T13:57:20;23.00;99.90
78550;DHT22;68091;52.130;5.570;2023-07-16T13:59:45;23.20;99.90
78550;DHT22;68091;52.130;5.570;2023-07-16T14:02:14;23.20;99.90
78550;DHT22;68091;52.130;5.570;2023-07-16T14:04:39;23.40;99.90
78550;DHT22;68091;52.130;5.570;2023-07-16T14:07:05;23.40;99.90
78550;DHT22;68091;52.130;5.570;2023-07-16T14:09:30;23.30;99.90
78550;DHT22;68091;52.130;5.570;2023-07-16T14:11:56;23.40;99.90
78550;DHT22;68091;52.130;5.570;2023-07-16T14:14:22;24.10;99.90
78550;DHT22;68091;52.130;5.570;2023-07-16T14:16:50;24.10;99.90
78550;DHT22;68091;52.130;5.570;2023-07-16T14:19:16;23.80;99.90
78550;DHT22;68091;52.130;5.570;2023-07-16T14:21:42;24.00;99.90
78550;DHT22;68091;52.130;5.570;2023-07-16T14:24:08;24.00;99.90
78550;DHT22;68091;52.130;5.570;2023-07-16T14:26:36;23.70;99.90
78550;DHT22;68091;52.130;5.570;2023-07-16T14:29:01;23.30;99.90
78550;DHT22;68091;52.130;5.570;2023-07-16T14:31:36;23.10;99.90
78550;DHT22;68091;52.130;5.570;2023-07-16T14:34:02;23.00;99.90
78550;DHT22;68091;52.130;5.570;2023-07-16T14:36:28;22.90;99.90
78550;DHT22;68091;52.130;5.570;2023-07-16T14:38:54;23.00;99.90
78550;DHT22;68091;52.130;5.570;2023-07-16T14:41:22;23.20;99.90
78550;DHT22;68091;52.130;5.570;2023-07-16T14:43:48;23.20;99.90
78550;DHT22;68091;52.130;5.570;2023-07-16T14:46:15;23.20;99.90
78550;DHT22;68091;52.130;5.570;2023-07-16T14:48:42;22.80;99.90
78550;DHT22;68091;52.130;5.570;2023-07-16T14:51:10;23.60;99.90
78550;DHT22;68091;52.130;5.570;2023-07-16T14:53:46;24.40;99.90
78550;DHT22;68091;52.130;5.570;2023-07-16T14:56:12;25.00;99.90
78550;DHT22;68091;52.130;5.570;2023-07-16T14:58:37;26.00;99.90
78550;DHT22;68091;52.130;5.570;2023-07-16T15:01:06;26.70;99.90
78550;DHT22;68091;52.130;5.570;2023-07-16T15:03:38;26.50;99.90
78550;DHT22;68091;52.130;5.570;2023-07-16T15:06:05;26.20;99.90
78550;DHT22;68091;52.130;5.570;2023-07-16T15:08:31;25.50;99.90
78550;DHT22;68091;52.130;5.570;2023-07-16T15:10:57;24.90;99.90
78550;DHT22;68091;52.130;5.570;2023-07-16T15:13:23;24.70;99.90
78550;DHT22;68091;52.130;5.570;2023-07-16T15:15:51;24.30;99.90
78550;DHT22;68091;52.130;5.570;2023-07-16T15:18:17;24.20;99.90
78550;DHT22;68091;52.130;5.570;2023-07-16T15:20:46;24.60;99.90
78550;DHT22;68091;52.130;5.570;2023-07-16T15:23:13;24.50;99.90
78550;DHT22;68091;52.130;5.570;2023-07-16T15:25:41;24.00;99.90
78550;DHT22;68091;52.130;5.570;2023-07-16T15:28:09;24.10;99.90
78550;DHT22;68091;52.130;5.570;2023-07-16T15:30:34;24.00;99.90
78550;DHT22;68091;52.130;5.570;2023-07-16T15:33:00;24.20;99.90
78550;DHT22;68091;52.130;5.570;2023-07-16T15:35:26;24.50;99.90